Swink, Oklahoma
Current Conditions -  °F | °C
As of 8:35 AM on Monday 20 Oct 2014 (Local Time) from KHHW Reporting Station
Clear Clear  
Wind Chill: 56°   Ceiling: Unl
Heat Index: 56°   Visibility: 10mi
Dew Point: 51°   Wind: 3mph
Humidity: 83%   Direction: 120°ESE
Pressure: 30.1"   Gusts: NA
Location:  34.02°N, 95.2°W
Report Text: KHHW 201335Z AUTO 12003KT 10SM CLR 14/11 A3010 RMK AO2 LTG DSNT N T01350107
Loading
Personal Weather Stations






























Interactive Weather Map
Tropical Storm Tracking
New forecast layout! Learn more

10-Day Weather Forecast

Advertisements
Track Severe Weather on mobile